sensor_id;sensor_type;location;lat;lon;timestamp;P1;durP1;ratioP1;P2;durP2;ratioP2
43319;SDS011;28914;48.722;9.332;2023-07-09T00:02:38;3.33;;;2.70;;
43319;SDS011;28914;48.722;9.332;2023-07-09T00:07:58;3.50;;;2.60;;
43319;SDS011;28914;48.722;9.332;2023-07-09T00:13:20;3.40;;;2.27;;
43319;SDS011;28914;48.722;9.332;2023-07-09T00:18:39;2.57;;;2.37;;
43319;SDS011;28914;48.722;9.332;2023-07-09T00:23:59;3.13;;;2.80;;
43319;SDS011;28914;48.722;9.332;2023-07-09T00:29:23;3.90;;;3.10;;
43319;SDS011;28914;48.722;9.332;2023-07-09T00:34:43;4.20;;;3.23;;
43319;SDS011;28914;48.722;9.332;2023-07-09T00:40:14;4.33;;;3.23;;
43319;SDS011;28914;48.722;9.332;2023-07-09T00:45:35;5.20;;;3.07;;
43319;SDS011;28914;48.722;9.332;2023-07-09T00:50:54;4.80;;;2.90;;
43319;SDS011;28914;48.722;9.332;2023-07-09T00:56:24;4.30;;;3.80;;
43319;SDS011;28914;48.722;9.332;2023-07-09T01:01:58;4.50;;;3.50;;
43319;SDS011;28914;48.722;9.332;2023-07-09T01:07:18;5.60;;;3.67;;
43319;SDS011;28914;48.722;9.332;2023-07-09T01:12:38;5.27;;;2.90;;
43319;SDS011;28914;48.722;9.332;2023-07-09T01:17:58;4.93;;;2.90;;
43319;SDS011;28914;48.722;9.332;2023-07-09T01:23:17;4.30;;;3.27;;
43319;SDS011;28914;48.722;9.332;2023-07-09T01:28:37;3.57;;;2.87;;
43319;SDS011;28914;48.722;9.332;2023-07-09T01:33:56;4.40;;;3.17;;
43319;SDS011;28914;48.722;9.332;2023-07-09T01:39:15;4.47;;;3.93;;
43319;SDS011;28914;48.722;9.332;2023-07-09T01:44:35;4.20;;;3.43;;
43319;SDS011;28914;48.722;9.332;2023-07-09T01:49:57;4.03;;;3.63;;
43319;SDS011;28914;48.722;9.332;2023-07-09T01:55:16;4.13;;;3.57;;
43319;SDS011;28914;48.722;9.332;2023-07-09T02:00:35;4.07;;;3.33;;
43319;SDS011;28914;48.722;9.332;2023-07-09T02:05:55;5.27;;;4.00;;
43319;SDS011;28914;48.722;9.332;2023-07-09T02:11:16;5.97;;;3.90;;
43319;SDS011;28914;48.722;9.332;2023-07-09T02:16:35;3.90;;;3.50;;
43319;SDS011;28914;48.722;9.332;2023-07-09T02:21:54;4.60;;;4.03;;
43319;SDS011;28914;48.722;9.332;2023-07-09T02:27:15;5.07;;;4.40;;
43319;SDS011;28914;48.722;9.332;2023-07-09T02:32:36;6.17;;;3.90;;
43319;SDS011;28914;48.722;9.332;2023-07-09T02:37:55;4.50;;;4.10;;
43319;SDS011;28914;48.722;9.332;2023-07-09T02:43:14;3.63;;;3.33;;
43319;SDS011;28914;48.722;9.332;2023-07-09T02:48:34;5.33;;;3.67;;
43319;SDS011;28914;48.722;9.332;2023-07-09T02:53:53;4.40;;;4.00;;
43319;SDS011;28914;48.722;9.332;2023-07-09T02:59:13;5.03;;;4.47;;
43319;SDS011;28914;48.722;9.332;2023-07-09T03:04:32;7.00;;;4.60;;
43319;SDS011;28914;48.722;9.332;2023-07-09T03:09:51;4.67;;;4.17;;
43319;SDS011;28914;48.722;9.332;2023-07-09T03:15:11;5.07;;;4.00;;
43319;SDS011;28914;48.722;9.332;2023-07-09T03:20:30;5.37;;;4.60;;
43319;SDS011;28914;48.722;9.332;2023-07-09T03:25:50;4.20;;;3.70;;
43319;SDS011;28914;48.722;9.332;2023-07-09T03:31:09;4.70;;;4.30;;
43319;SDS011;28914;48.722;9.332;2023-07-09T03:36:28;4.10;;;3.70;;
43319;SDS011;28914;48.722;9.332;2023-07-09T03:41:48;4.80;;;4.40;;
43319;SDS011;28914;48.722;9.332;2023-07-09T03:47:08;5.80;;;4.07;;
43319;SDS011;28914;48.722;9.332;2023-07-09T03:52:27;5.03;;;4.13;;
43319;SDS011;28914;48.722;9.332;2023-07-09T03:57:46;4.60;;;3.97;;
43319;SDS011;28914;48.722;9.332;2023-07-09T04:03:05;5.80;;;4.07;;
43319;SDS011;28914;48.722;9.332;2023-07-09T04:08:27;5.50;;;5.00;;
43319;SDS011;28914;48.722;9.332;2023-07-09T04:13:46;5.00;;;3.50;;
43319;SDS011;28914;48.722;9.332;2023-07-09T04:19:05;6.33;;;4.17;;
43319;SDS011;28914;48.722;9.332;2023-07-09T04:24:24;4.30;;;3.33;;
43319;SDS011;28914;48.722;9.332;2023-07-09T04:29:46;5.20;;;3.70;;
43319;SDS011;28914;48.722;9.332;2023-07-09T04:35:05;3.97;;;3.67;;
43319;SDS011;28914;48.722;9.332;2023-07-09T04:40:24;4.93;;;4.10;;
43319;SDS011;28914;48.722;9.332;2023-07-09T04:45:44;5.13;;;4.43;;
43319;SDS011;28914;48.722;9.332;2023-07-09T04:51:03;4.63;;;4.10;;
43319;SDS011;28914;48.722;9.332;2023-07-09T04:56:22;6.80;;;4.93;;
43319;SDS011;28914;48.722;9.332;2023-07-09T05:01:42;4.87;;;4.37;;
43319;SDS011;28914;48.722;9.332;2023-07-09T05:07:01;4.70;;;4.23;;
43319;SDS011;28914;48.722;9.332;2023-07-09T05:12:20;5.00;;;3.53;;
43319;SDS011;28914;48.722;9.332;2023-07-09T05:17:39;5.87;;;4.33;;
43319;SDS011;28914;48.722;9.332;2023-07-09T05:22:59;4.93;;;3.87;;
43319;SDS011;28914;48.722;9.332;2023-07-09T05:28:18;4.00;;;3.70;;
43319;SDS011;28914;48.722;9.332;2023-07-09T05:33:37;5.07;;;4.40;;
43319;SDS011;28914;48.722;9.332;2023-07-09T05:38:56;6.87;;;4.47;;
43319;SDS011;28914;48.722;9.332;2023-07-09T05:44:15;6.13;;;4.90;;
43319;SDS011;28914;48.722;9.332;2023-07-09T05:49:34;6.07;;;4.83;;
43319;SDS011;28914;48.722;9.332;2023-07-09T05:54:54;4.77;;;3.60;;
43319;SDS011;28914;48.722;9.332;2023-07-09T06:00:13;4.10;;;3.70;;
43319;SDS011;28914;48.722;9.332;2023-07-09T06:05:33;4.93;;;4.00;;
43319;SDS011;28914;48.722;9.332;2023-07-09T06:11:02;3.93;;;3.53;;
43319;SDS011;28914;48.722;9.332;2023-07-09T06:16:22;5.27;;;3.93;;
43319;SDS011;28914;48.722;9.332;2023-07-09T06:21:41;5.13;;;4.20;;
43319;SDS011;28914;48.722;9.332;2023-07-09T06:27:00;4.73;;;4.23;;
43319;SDS011;28914;48.722;9.332;2023-07-09T06:32:19;4.10;;;3.50;;
43319;SDS011;28914;48.722;9.332;2023-07-09T06:37:38;3.87;;;3.47;;
43319;SDS011;28914;48.722;9.332;2023-07-09T06:42:57;6.33;;;5.50;;
43319;SDS011;28914;48.722;9.332;2023-07-09T06:48:17;4.50;;;3.90;;
43319;SDS011;28914;48.722;9.332;2023-07-09T06:53:36;5.90;;;5.30;;
43319;SDS011;28914;48.722;9.332;2023-07-09T06:58:55;5.97;;;4.20;;
43319;SDS011;28914;48.722;9.332;2023-07-09T07:04:15;4.73;;;4.33;;
43319;SDS011;28914;48.722;9.332;2023-07-09T07:09:34;5.80;;;4.53;;
43319;SDS011;28914;48.722;9.332;2023-07-09T07:14:53;6.23;;;4.60;;
43319;SDS011;28914;48.722;9.332;2023-07-09T07:20:13;5.10;;;4.00;;
43319;SDS011;28914;48.722;9.332;2023-07-09T07:25:34;4.73;;;3.60;;
43319;SDS011;28914;48.722;9.332;2023-07-09T07:30:59;4.43;;;3.90;;
43319;SDS011;28914;48.722;9.332;2023-07-09T07:36:23;4.30;;;3.60;;
43319;SDS011;28914;48.722;9.332;2023-07-09T07:41:43;6.90;;;4.17;;
43319;SDS011;28914;48.722;9.332;2023-07-09T07:47:02;4.83;;;3.17;;
43319;SDS011;28914;48.722;9.332;2023-07-09T07:52:22;3.47;;;3.07;;
43319;SDS011;28914;48.722;9.332;2023-07-09T07:57:41;4.70;;;4.30;;
43319;SDS011;28914;48.722;9.332;2023-07-09T08:03:02;3.77;;;3.37;;
43319;SDS011;28914;48.722;9.332;2023-07-09T08:08:21;4.83;;;4.30;;
43319;SDS011;28914;48.722;9.332;2023-07-09T08:13:41;3.35;;;3.05;;
43319;SDS011;28914;48.722;9.332;2023-07-09T08:19:00;3.13;;;2.83;;
43319;SDS011;28914;48.722;9.332;2023-07-09T08:24:19;5.68;;;4.00;;
43319;SDS011;28914;48.722;9.332;2023-07-09T08:29:38;4.28;;;3.88;;
43319;SDS011;28914;48.722;9.332;2023-07-09T08:35:00;4.00;;;2.80;;
43319;SDS011;28914;48.722;9.332;2023-07-09T08:40:19;3.83;;;3.53;;
43319;SDS011;28914;48.722;9.332;2023-07-09T08:51:33;3.03;;;2.42;;
43319;SDS011;28914;48.722;9.332;2023-07-09T09:02:45;3.08;;;2.78;;
43319;SDS011;28914;48.722;9.332;2023-07-09T09:08:24;3.38;;;3.05;;
43319;SDS011;28914;48.722;9.332;2023-07-09T09:13:50;3.55;;;3.08;;
43319;SDS011;28914;48.722;9.332;2023-07-09T09:19:16;3.30;;;2.65;;
43319;SDS011;28914;48.722;9.332;2023-07-09T09:30:14;4.07;;;3.15;;
43319;SDS011;28914;48.722;9.332;2023-07-09T09:35:40;2.95;;;2.65;;
43319;SDS011;28914;48.722;9.332;2023-07-09T09:41:02;2.63;;;2.10;;
43319;SDS011;28914;48.722;9.332;2023-07-09T09:46:23;2.38;;;2.00;;
43319;SDS011;28914;48.722;9.332;2023-07-09T09:51:44;3.08;;;2.22;;
43319;SDS011;28914;48.722;9.332;2023-07-09T09:57:13;3.03;;;2.70;;
43319;SDS011;28914;48.722;9.332;2023-07-09T10:02:41;2.60;;;2.40;;
43319;SDS011;28914;48.722;9.332;2023-07-09T10:08:08;3.05;;;2.75;;
43319;SDS011;28914;48.722;9.332;2023-07-09T10:13:34;2.40;;;2.20;;
43319;SDS011;28914;48.722;9.332;2023-07-09T10:24:35;3.10;;;2.80;;
43319;SDS011;28914;48.722;9.332;2023-07-09T10:35:48;2.88;;;2.22;;
43319;SDS011;28914;48.722;9.332;2023-07-09T10:41:19;2.53;;;1.90;;
43319;SDS011;28914;48.722;9.332;2023-07-09T10:46:41;3.65;;;2.75;;
43319;SDS011;28914;48.722;9.332;2023-07-09T10:52:06;2.83;;;2.35;;
43319;SDS011;28914;48.722;9.332;2023-07-09T10:57:54;3.78;;;2.80;;
43319;SDS011;28914;48.722;9.332;2023-07-09T11:03:22;2.72;;;2.53;;
43319;SDS011;28914;48.722;9.332;2023-07-09T11:08:57;5.47;;;3.17;;
43319;SDS011;28914;48.722;9.332;2023-07-09T11:14:30;2.80;;;2.50;;
43319;SDS011;28914;48.722;9.332;2023-07-09T11:20:06;2.95;;;2.67;;
43319;SDS011;28914;48.722;9.332;2023-07-09T11:26:09;5.57;;;3.53;;
43319;SDS011;28914;48.722;9.332;2023-07-09T11:31:37;5.10;;;3.22;;
43319;SDS011;28914;48.722;9.332;2023-07-09T11:36:58;3.83;;;2.90;;
43319;SDS011;28914;48.722;9.332;2023-07-09T11:42:31;5.38;;;3.90;;
43319;SDS011;28914;48.722;9.332;2023-07-09T11:48:13;5.70;;;3.95;;
43319;SDS011;28914;48.722;9.332;2023-07-09T11:53:43;3.95;;;3.08;;
43319;SDS011;28914;48.722;9.332;2023-07-09T11:59:06;3.90;;;3.55;;
43319;SDS011;28914;48.722;9.332;2023-07-09T12:04:33;4.15;;;3.75;;
43319;SDS011;28914;48.722;9.332;2023-07-09T12:09:54;4.35;;;3.55;;
43319;SDS011;28914;48.722;9.332;2023-07-09T12:15:21;5.20;;;3.70;;
43319;SDS011;28914;48.722;9.332;2023-07-09T12:20:51;3.75;;;3.22;;
43319;SDS011;28914;48.722;9.332;2023-07-09T12:26:13;4.72;;;3.60;;
43319;SDS011;28914;48.722;9.332;2023-07-09T12:31:34;3.97;;;3.47;;
43319;SDS011;28914;48.722;9.332;2023-07-09T12:36:53;6.72;;;3.60;;
43319;SDS011;28914;48.722;9.332;2023-07-09T12:42:32;3.53;;;3.22;;
43319;SDS011;28914;48.722;9.332;2023-07-09T12:47:53;3.88;;;3.10;;
43319;SDS011;28914;48.722;9.332;2023-07-09T12:53:14;5.65;;;3.17;;
43319;SDS011;28914;48.722;9.332;2023-07-09T12:58:36;3.65;;;3.10;;
43319;SDS011;28914;48.722;9.332;2023-07-09T13:03:57;5.80;;;3.60;;
43319;SDS011;28914;48.722;9.332;2023-07-09T13:09:20;3.58;;;3.20;;
43319;SDS011;28914;48.722;9.332;2023-07-09T13:14:40;7.05;;;4.03;;
43319;SDS011;28914;48.722;9.332;2023-07-09T13:19:59;5.18;;;3.40;;
43319;SDS011;28914;48.722;9.332;2023-07-09T13:25:18;5.50;;;3.38;;
43319;SDS011;28914;48.722;9.332;2023-07-09T13:30:37;4.22;;;3.55;;
43319;SDS011;28914;48.722;9.332;2023-07-09T13:35:57;3.08;;;2.70;;
43319;SDS011;28914;48.722;9.332;2023-07-09T13:41:17;4.38;;;3.20;;
43319;SDS011;28914;48.722;9.332;2023-07-09T13:46:40;5.32;;;3.92;;
43319;SDS011;28914;48.722;9.332;2023-07-09T13:51:59;4.07;;;3.58;;
43319;SDS011;28914;48.722;9.332;2023-07-09T13:57:20;8.60;;;3.88;;
43319;SDS011;28914;48.722;9.332;2023-07-09T14:02:40;3.20;;;2.85;;
43319;SDS011;28914;48.722;9.332;2023-07-09T14:07:59;4.55;;;3.30;;
43319;SDS011;28914;48.722;9.332;2023-07-09T14:13:20;4.05;;;3.67;;
43319;SDS011;28914;48.722;9.332;2023-07-09T14:18:41;5.72;;;4.53;;
43319;SDS011;28914;48.722;9.332;2023-07-09T14:24:00;4.68;;;4.00;;
43319;SDS011;28914;48.722;9.332;2023-07-09T14:29:26;4.72;;;3.80;;
43319;SDS011;28914;48.722;9.332;2023-07-09T14:34:45;3.33;;;3.03;;
43319;SDS011;28914;48.722;9.332;2023-07-09T14:40:04;3.92;;;2.70;;
43319;SDS011;28914;48.722;9.332;2023-07-09T14:45:24;3.63;;;3.25;;
43319;SDS011;28914;48.722;9.332;2023-07-09T14:50:47;3.97;;;3.20;;
43319;SDS011;28914;48.722;9.332;2023-07-09T14:56:07;2.80;;;2.38;;
43319;SDS011;28914;48.722;9.332;2023-07-09T15:01:28;5.85;;;3.33;;
43319;SDS011;28914;48.722;9.332;2023-07-09T15:06:52;4.13;;;3.80;;
43319;SDS011;28914;48.722;9.332;2023-07-09T15:12:17;3.67;;;3.25;;
43319;SDS011;28914;48.722;9.332;2023-07-09T15:17:40;3.22;;;2.85;;
43319;SDS011;28914;48.722;9.332;2023-07-09T15:23:00;3.55;;;2.80;;
43319;SDS011;28914;48.722;9.332;2023-07-09T15:28:19;3.60;;;2.78;;
43319;SDS011;28914;48.722;9.332;2023-07-09T15:33:38;8.18;;;3.10;;
43319;SDS011;28914;48.722;9.332;2023-07-09T15:38:57;4.13;;;3.13;;
43319;SDS011;28914;48.722;9.332;2023-07-09T15:44:17;3.63;;;2.25;;
43319;SDS011;28914;48.722;9.332;2023-07-09T15:49:36;3.55;;;2.55;;
43319;SDS011;28914;48.722;9.332;2023-07-09T15:54:56;3.17;;;2.65;;
43319;SDS011;28914;48.722;9.332;2023-07-09T16:00:19;5.93;;;3.20;;
43319;SDS011;28914;48.722;9.332;2023-07-09T16:05:41;5.88;;;3.83;;
43319;SDS011;28914;48.722;9.332;2023-07-09T16:11:04;3.50;;;2.93;;
43319;SDS011;28914;48.722;9.332;2023-07-09T16:16:40;3.17;;;2.53;;
43319;SDS011;28914;48.722;9.332;2023-07-09T16:22:00;5.57;;;2.70;;
43319;SDS011;28914;48.722;9.332;2023-07-09T16:27:21;2.77;;;2.50;;
43319;SDS011;28914;48.722;9.332;2023-07-09T16:32:42;3.87;;;2.57;;
43319;SDS011;28914;48.722;9.332;2023-07-09T16:38:02;3.63;;;2.90;;
43319;SDS011;28914;48.722;9.332;2023-07-09T16:43:22;3.23;;;2.37;;
43319;SDS011;28914;48.722;9.332;2023-07-09T16:48:42;3.30;;;2.60;;
43319;SDS011;28914;48.722;9.332;2023-07-09T16:54:01;3.00;;;2.80;;
43319;SDS011;28914;48.722;9.332;2023-07-09T16:59:22;2.60;;;1.97;;
43319;SDS011;28914;48.722;9.332;2023-07-09T17:04:41;2.90;;;2.17;;
43319;SDS011;28914;48.722;9.332;2023-07-09T17:10:00;2.90;;;2.37;;
43319;SDS011;28914;48.722;9.332;2023-07-09T17:15:31;6.27;;;2.90;;
43319;SDS011;28914;48.722;9.332;2023-07-09T17:20:53;4.60;;;3.37;;
43319;SDS011;28914;48.722;9.332;2023-07-09T17:26:13;3.20;;;2.73;;
43319;SDS011;28914;48.722;9.332;2023-07-09T17:31:33;3.30;;;2.77;;
43319;SDS011;28914;48.722;9.332;2023-07-09T17:36:52;4.07;;;2.50;;
43319;SDS011;28914;48.722;9.332;2023-07-09T17:42:11;2.23;;;2.03;;
43319;SDS011;28914;48.722;9.332;2023-07-09T17:47:31;4.27;;;2.20;;
43319;SDS011;28914;48.722;9.332;2023-07-09T17:52:54;3.30;;;2.07;;
43319;SDS011;28914;48.722;9.332;2023-07-09T17:58:15;2.70;;;2.03;;
43319;SDS011;28914;48.722;9.332;2023-07-09T18:03:52;3.67;;;2.53;;
43319;SDS011;28914;48.722;9.332;2023-07-09T18:09:12;2.70;;;2.23;;
43319;SDS011;28914;48.722;9.332;2023-07-09T18:14:33;2.13;;;1.87;;
43319;SDS011;28914;48.722;9.332;2023-07-09T18:19:56;3.37;;;2.13;;
43319;SDS011;28914;48.722;9.332;2023-07-09T18:25:15;2.97;;;2.03;;
43319;SDS011;28914;48.722;9.332;2023-07-09T18:30:35;3.40;;;2.97;;
43319;SDS011;28914;48.722;9.332;2023-07-09T18:35:55;3.33;;;3.03;;
43319;SDS011;28914;48.722;9.332;2023-07-09T18:41:15;4.30;;;2.63;;
43319;SDS011;28914;48.722;9.332;2023-07-09T18:46:35;3.13;;;2.67;;
43319;SDS011;28914;48.722;9.332;2023-07-09T18:51:54;4.40;;;2.80;;
43319;SDS011;28914;48.722;9.332;2023-07-09T18:57:14;3.03;;;2.67;;
43319;SDS011;28914;48.722;9.332;2023-07-09T19:02:33;3.20;;;2.80;;
43319;SDS011;28914;48.722;9.332;2023-07-09T19:07:54;3.03;;;2.73;;
43319;SDS011;28914;48.722;9.332;2023-07-09T19:13:14;2.67;;;2.23;;
43319;SDS011;28914;48.722;9.332;2023-07-09T19:18:36;3.27;;;2.37;;
43319;SDS011;28914;48.722;9.332;2023-07-09T19:23:55;4.00;;;2.77;;
43319;SDS011;28914;48.722;9.332;2023-07-09T19:29:15;4.83;;;2.87;;
43319;SDS011;28914;48.722;9.332;2023-07-09T19:34:35;4.70;;;3.83;;
43319;SDS011;28914;48.722;9.332;2023-07-09T19:39:59;3.33;;;2.73;;
43319;SDS011;28914;48.722;9.332;2023-07-09T19:45:21;3.10;;;2.80;;
43319;SDS011;28914;48.722;9.332;2023-07-09T19:50:50;3.20;;;2.70;;
43319;SDS011;28914;48.722;9.332;2023-07-09T19:56:10;4.50;;;2.77;;
43319;SDS011;28914;48.722;9.332;2023-07-09T20:01:29;6.23;;;3.60;;
43319;SDS011;28914;48.722;9.332;2023-07-09T20:06:48;11.83;;;4.07;;
43319;SDS011;28914;48.722;9.332;2023-07-09T20:12:16;5.10;;;4.30;;
43319;SDS011;28914;48.722;9.332;2023-07-09T20:17:40;3.30;;;3.00;;
43319;SDS011;28914;48.722;9.332;2023-07-09T20:22:59;3.20;;;2.70;;
43319;SDS011;28914;48.722;9.332;2023-07-09T20:28:20;4.60;;;4.00;;
43319;SDS011;28914;48.722;9.332;2023-07-09T20:33:41;4.03;;;3.63;;
43319;SDS011;28914;48.722;9.332;2023-07-09T20:39:00;4.77;;;3.53;;
43319;SDS011;28914;48.722;9.332;2023-07-09T20:44:26;4.00;;;2.83;;
43319;SDS011;28914;48.722;9.332;2023-07-09T20:49:49;3.70;;;3.30;;
43319;SDS011;28914;48.722;9.332;2023-07-09T20:55:12;4.60;;;3.77;;
43319;SDS011;28914;48.722;9.332;2023-07-09T21:00:33;5.53;;;3.77;;
43319;SDS011;28914;48.722;9.332;2023-07-09T21:05:52;5.90;;;4.90;;
43319;SDS011;28914;48.722;9.332;2023-07-09T21:11:12;5.70;;;4.40;;
43319;SDS011;28914;48.722;9.332;2023-07-09T21:16:31;6.47;;;3.93;;
43319;SDS011;28914;48.722;9.332;2023-07-09T21:21:50;6.03;;;4.07;;
43319;SDS011;28914;48.722;9.332;2023-07-09T21:27:09;6.47;;;4.13;;
43319;SDS011;28914;48.722;9.332;2023-07-09T21:32:30;5.23;;;3.83;;
43319;SDS011;28914;48.722;9.332;2023-07-09T21:37:50;5.07;;;4.03;;
43319;SDS011;28914;48.722;9.332;2023-07-09T21:43:10;5.50;;;4.20;;
43319;SDS011;28914;48.722;9.332;2023-07-09T21:48:29;5.67;;;4.40;;
43319;SDS011;28914;48.722;9.332;2023-07-09T21:53:48;4.80;;;4.03;;
43319;SDS011;28914;48.722;9.332;2023-07-09T21:59:08;5.73;;;4.57;;
43319;SDS011;28914;48.722;9.332;2023-07-09T22:04:31;6.97;;;4.33;;
43319;SDS011;28914;48.722;9.332;2023-07-09T22:09:54;5.13;;;4.47;;
43319;SDS011;28914;48.722;9.332;2023-07-09T22:15:16;8.10;;;3.83;;
43319;SDS011;28914;48.722;9.332;2023-07-09T22:20:39;4.93;;;4.10;;
43319;SDS011;28914;48.722;9.332;2023-07-09T22:25:58;5.33;;;4.47;;
43319;SDS011;28914;48.722;9.332;2023-07-09T22:31:18;7.07;;;4.13;;
43319;SDS011;28914;48.722;9.332;2023-07-09T22:36:37;5.53;;;4.40;;
43319;SDS011;28914;48.722;9.332;2023-07-09T22:41:56;4.90;;;4.43;;
43319;SDS011;28914;48.722;9.332;2023-07-09T22:47:17;6.00;;;5.07;;
43319;SDS011;28914;48.722;9.332;2023-07-09T22:52:39;4.50;;;3.77;;
43319;SDS011;28914;48.722;9.332;2023-07-09T22:57:59;5.90;;;4.90;;
43319;SDS011;28914;48.722;9.332;2023-07-09T23:03:20;5.33;;;4.43;;
43319;SDS011;28914;48.722;9.332;2023-07-09T23:08:41;5.07;;;4.27;;
43319;SDS011;28914;48.722;9.332;2023-07-09T23:14:01;4.60;;;4.13;;
43319;SDS011;28914;48.722;9.332;2023-07-09T23:19:21;7.10;;;4.70;;
43319;SDS011;28914;48.722;9.332;2023-07-09T23:24:42;4.93;;;4.20;;
43319;SDS011;28914;48.722;9.332;2023-07-09T23:30:04;8.93;;;7.80;;
43319;SDS011;28914;48.722;9.332;2023-07-09T23:35:38;8.07;;;5.30;;
43319;SDS011;28914;48.722;9.332;2023-07-09T23:40:58;7.80;;;4.77;;
43319;SDS011;28914;48.722;9.332;2023-07-09T23:46:19;4.53;;;3.90;;
43319;SDS011;28914;48.722;9.332;2023-07-09T23:51:39;8.50;;;4.90;;
43319;SDS011;28914;48.722;9.332;2023-07-09T23:56:58;4.23;;;3.87;;
